sensor_id;sensor_type;location;lat;lon;timestamp;P1;durP1;ratioP1;P2;durP2;ratioP2
83117;SDS011;73000;51.784;4.660;2023-10-19T00:00:46;33.95;;;16.77;;
83117;SDS011;73000;51.784;4.660;2023-10-19T00:03:16;26.88;;;16.08;;
83117;SDS011;73000;51.784;4.660;2023-10-19T00:05:43;27.55;;;16.15;;
83117;SDS011;73000;51.784;4.660;2023-10-19T00:08:10;28.88;;;17.63;;
83117;SDS011;73000;51.784;4.660;2023-10-19T00:10:39;27.45;;;17.30;;
83117;SDS011;73000;51.784;4.660;2023-10-19T00:13:09;31.13;;;17.02;;
83117;SDS011;73000;51.784;4.660;2023-10-19T00:15:39;33.03;;;18.08;;
83117;SDS011;73000;51.784;4.660;2023-10-19T00:18:09;31.92;;;17.35;;
83117;SDS011;73000;51.784;4.660;2023-10-19T00:20:43;31.10;;;17.40;;
83117;SDS011;73000;51.784;4.660;2023-10-19T00:23:10;30.20;;;16.98;;
83117;SDS011;73000;51.784;4.660;2023-10-19T00:25:43;30.52;;;17.50;;
83117;SDS011;73000;51.784;4.660;2023-10-19T00:28:16;30.05;;;18.05;;
83117;SDS011;73000;51.784;4.660;2023-10-19T00:30:42;36.35;;;18.88;;
83117;SDS011;73000;51.784;4.660;2023-10-19T00:33:10;31.65;;;17.17;;
83117;SDS011;73000;51.784;4.660;2023-10-19T00:35:53;31.95;;;17.20;;
83117;SDS011;73000;51.784;4.660;2023-10-19T00:38:34;29.58;;;17.23;;
83117;SDS011;73000;51.784;4.660;2023-10-19T00:41:00;36.83;;;19.13;;
83117;SDS011;73000;51.784;4.660;2023-10-19T00:43:36;29.33;;;16.90;;
83117;SDS011;73000;51.784;4.660;2023-10-19T00:46:07;29.25;;;15.02;;
83117;SDS011;73000;51.784;4.660;2023-10-19T00:48:39;25.70;;;15.98;;
83117;SDS011;73000;51.784;4.660;2023-10-19T00:51:05;25.98;;;16.02;;
83117;SDS011;73000;51.784;4.660;2023-10-19T00:53:37;19.02;;;12.43;;
83117;SDS011;73000;51.784;4.660;2023-10-19T00:56:04;23.13;;;13.57;;
83117;SDS011;73000;51.784;4.660;2023-10-19T00:58:34;19.00;;;12.20;;
83117;SDS011;73000;51.784;4.660;2023-10-19T01:01:04;15.27;;;10.70;;
83117;SDS011;73000;51.784;4.660;2023-10-19T01:03:34;18.52;;;9.82;;
83117;SDS011;73000;51.784;4.660;2023-10-19T01:06:03;13.15;;;8.32;;
83117;SDS011;73000;51.784;4.660;2023-10-19T01:08:36;14.85;;;8.10;;
83117;SDS011;73000;51.784;4.660;2023-10-19T01:11:07;12.00;;;7.13;;
83117;SDS011;73000;51.784;4.660;2023-10-19T01:13:39;15.15;;;8.07;;
83117;SDS011;73000;51.784;4.660;2023-10-19T01:16:11;12.10;;;6.70;;
83117;SDS011;73000;51.784;4.660;2023-10-19T01:18:41;8.60;;;6.47;;
83117;SDS011;73000;51.784;4.660;2023-10-19T01:21:08;8.65;;;6.47;;
83117;SDS011;73000;51.784;4.660;2023-10-19T01:23:35;10.45;;;6.50;;
83117;SDS011;73000;51.784;4.660;2023-10-19T01:26:01;10.38;;;7.03;;
83117;SDS011;73000;51.784;4.660;2023-10-19T01:28:36;9.27;;;5.82;;
83117;SDS011;73000;51.784;4.660;2023-10-19T01:31:08;12.73;;;5.82;;
83117;SDS011;73000;51.784;4.660;2023-10-19T01:33:39;9.57;;;6.13;;
83117;SDS011;73000;51.784;4.660;2023-10-19T01:36:06;7.55;;;5.45;;
83117;SDS011;73000;51.784;4.660;2023-10-19T01:38:53;9.32;;;5.25;;
83117;SDS011;73000;51.784;4.660;2023-10-19T01:41:21;7.50;;;4.82;;
83117;SDS011;73000;51.784;4.660;2023-10-19T01:43:49;8.13;;;4.93;;
83117;SDS011;73000;51.784;4.660;2023-10-19T01:46:18;7.50;;;4.40;;
83117;SDS011;73000;51.784;4.660;2023-10-19T01:49:00;6.22;;;4.28;;
83117;SDS011;73000;51.784;4.660;2023-10-19T01:51:28;6.93;;;4.78;;
83117;SDS011;73000;51.784;4.660;2023-10-19T01:53:57;6.18;;;4.20;;
83117;SDS011;73000;51.784;4.660;2023-10-19T01:56:25;6.47;;;4.90;;
83117;SDS011;73000;51.784;4.660;2023-10-19T01:58:51;7.82;;;5.43;;
83117;SDS011;73000;51.784;4.660;2023-10-19T02:01:17;9.60;;;5.60;;
83117;SDS011;73000;51.784;4.660;2023-10-19T02:03:54;7.38;;;6.13;;
83117;SDS011;73000;51.784;4.660;2023-10-19T02:06:23;10.50;;;6.97;;
83117;SDS011;73000;51.784;4.660;2023-10-19T02:09:08;11.15;;;6.90;;
83117;SDS011;73000;51.784;4.660;2023-10-19T02:11:44;11.02;;;6.75;;
83117;SDS011;73000;51.784;4.660;2023-10-19T02:14:13;9.13;;;5.70;;
83117;SDS011;73000;51.784;4.660;2023-10-19T02:16:43;8.52;;;5.80;;
83117;SDS011;73000;51.784;4.660;2023-10-19T02:19:12;7.05;;;5.38;;
83117;SDS011;73000;51.784;4.660;2023-10-19T02:21:38;9.55;;;5.85;;
83117;SDS011;73000;51.784;4.660;2023-10-19T02:24:07;8.07;;;4.53;;
83117;SDS011;73000;51.784;4.660;2023-10-19T02:26:34;7.07;;;3.78;;
83117;SDS011;73000;51.784;4.660;2023-10-19T02:29:02;6.95;;;3.60;;
83117;SDS011;73000;51.784;4.660;2023-10-19T02:31:32;4.30;;;3.38;;
83117;SDS011;73000;51.784;4.660;2023-10-19T02:33:58;5.68;;;3.20;;
83117;SDS011;73000;51.784;4.660;2023-10-19T02:36:24;7.13;;;3.03;;
83117;SDS011;73000;51.784;4.660;2023-10-19T02:38:53;9.38;;;3.38;;
83117;SDS011;73000;51.784;4.660;2023-10-19T02:41:19;6.60;;;3.22;;
83117;SDS011;73000;51.784;4.660;2023-10-19T02:43:46;5.50;;;2.85;;
83117;SDS011;73000;51.784;4.660;2023-10-19T02:46:15;4.95;;;2.80;;
83117;SDS011;73000;51.784;4.660;2023-10-19T02:48:42;5.25;;;3.03;;
83117;SDS011;73000;51.784;4.660;2023-10-19T02:51:12;4.70;;;2.20;;
83117;SDS011;73000;51.784;4.660;2023-10-19T02:53:39;4.88;;;2.63;;
83117;SDS011;73000;51.784;4.660;2023-10-19T02:56:12;3.83;;;2.13;;
83117;SDS011;73000;51.784;4.660;2023-10-19T02:58:41;4.35;;;2.40;;
83117;SDS011;73000;51.784;4.660;2023-10-19T03:01:12;6.25;;;2.40;;
83117;SDS011;73000;51.784;4.660;2023-10-19T03:03:39;4.35;;;2.00;;
83117;SDS011;73000;51.784;4.660;2023-10-19T03:06:04;4.28;;;2.13;;
83117;SDS011;73000;51.784;4.660;2023-10-19T03:08:31;5.25;;;2.03;;
83117;SDS011;73000;51.784;4.660;2023-10-19T03:10:56;5.28;;;1.80;;
83117;SDS011;73000;51.784;4.660;2023-10-19T03:13:32;8.75;;;2.10;;
83117;SDS011;73000;51.784;4.660;2023-10-19T03:15:58;3.10;;;1.80;;
83117;SDS011;73000;51.784;4.660;2023-10-19T03:20:51;4.55;;;2.08;;
83117;SDS011;73000;51.784;4.660;2023-10-19T03:23:16;3.15;;;1.80;;
83117;SDS011;73000;51.784;4.660;2023-10-19T03:25:42;4.63;;;1.73;;
83117;SDS011;73000;51.784;4.660;2023-10-19T03:28:26;4.65;;;1.63;;
83117;SDS011;73000;51.784;4.660;2023-10-19T03:30:51;5.07;;;1.80;;
83117;SDS011;73000;51.784;4.660;2023-10-19T03:33:20;6.10;;;1.98;;
83117;SDS011;73000;51.784;4.660;2023-10-19T03:35:45;6.30;;;2.13;;
83117;SDS011;73000;51.784;4.660;2023-10-19T03:38:11;5.88;;;2.00;;
83117;SDS011;73000;51.784;4.660;2023-10-19T03:40:41;4.43;;;1.75;;
83117;SDS011;73000;51.784;4.660;2023-10-19T03:43:11;7.38;;;2.45;;
83117;SDS011;73000;51.784;4.660;2023-10-19T03:45:43;3.45;;;1.80;;
83117;SDS011;73000;51.784;4.660;2023-10-19T03:48:17;5.40;;;2.75;;
83117;SDS011;73000;51.784;4.660;2023-10-19T03:50:51;4.90;;;1.90;;
83117;SDS011;73000;51.784;4.660;2023-10-19T03:53:20;7.47;;;2.00;;
83117;SDS011;73000;51.784;4.660;2023-10-19T03:55:46;4.50;;;2.03;;
83117;SDS011;73000;51.784;4.660;2023-10-19T03:58:12;2.70;;;2.08;;
83117;SDS011;73000;51.784;4.660;2023-10-19T04:00:40;9.43;;;2.70;;
83117;SDS011;73000;51.784;4.660;2023-10-19T04:03:06;5.68;;;2.80;;
83117;SDS011;73000;51.784;4.660;2023-10-19T04:05:32;4.95;;;1.88;;
83117;SDS011;73000;51.784;4.660;2023-10-19T04:08:03;4.82;;;1.90;;
83117;SDS011;73000;51.784;4.660;2023-10-19T04:10:37;6.28;;;1.88;;
83117;SDS011;73000;51.784;4.660;2023-10-19T04:13:03;4.77;;;2.27;;
83117;SDS011;73000;51.784;4.660;2023-10-19T04:15:29;4.40;;;1.90;;
83117;SDS011;73000;51.784;4.660;2023-10-19T04:17:54;4.78;;;1.80;;
83117;SDS011;73000;51.784;4.660;2023-10-19T04:20:23;4.25;;;1.80;;
83117;SDS011;73000;51.784;4.660;2023-10-19T04:23:00;10.57;;;2.10;;
83117;SDS011;73000;51.784;4.660;2023-10-19T04:25:35;4.32;;;2.03;;
83117;SDS011;73000;51.784;4.660;2023-10-19T04:28:00;2.90;;;1.73;;
83117;SDS011;73000;51.784;4.660;2023-10-19T04:30:25;4.85;;;1.83;;
83117;SDS011;73000;51.784;4.660;2023-10-19T04:32:51;4.57;;;1.90;;
83117;SDS011;73000;51.784;4.660;2023-10-19T04:35:17;5.88;;;2.00;;
83117;SDS011;73000;51.784;4.660;2023-10-19T04:37:49;4.93;;;1.73;;
83117;SDS011;73000;51.784;4.660;2023-10-19T04:40:16;3.53;;;2.08;;
83117;SDS011;73000;51.784;4.660;2023-10-19T04:42:42;4.00;;;1.75;;
83117;SDS011;73000;51.784;4.660;2023-10-19T04:45:08;6.35;;;1.60;;
83117;SDS011;73000;51.784;4.660;2023-10-19T04:47:36;6.85;;;2.22;;
83117;SDS011;73000;51.784;4.660;2023-10-19T04:50:02;4.00;;;1.88;;
83117;SDS011;73000;51.784;4.660;2023-10-19T04:52:30;2.72;;;1.80;;
83117;SDS011;73000;51.784;4.660;2023-10-19T04:54:56;4.93;;;2.08;;
83117;SDS011;73000;51.784;4.660;2023-10-19T04:57:22;2.40;;;1.83;;
83117;SDS011;73000;51.784;4.660;2023-10-19T04:59:47;5.70;;;2.17;;
83117;SDS011;73000;51.784;4.660;2023-10-19T05:02:13;4.47;;;1.95;;
83117;SDS011;73000;51.784;4.660;2023-10-19T05:04:38;6.13;;;1.92;;
83117;SDS011;73000;51.784;4.660;2023-10-19T05:07:05;8.23;;;2.35;;
83117;SDS011;73000;51.784;4.660;2023-10-19T05:09:31;5.18;;;1.95;;
83117;SDS011;73000;51.784;4.660;2023-10-19T05:11:57;7.22;;;2.10;;
83117;SDS011;73000;51.784;4.660;2023-10-19T05:14:22;5.28;;;1.90;;
83117;SDS011;73000;51.784;4.660;2023-10-19T05:16:48;10.27;;;2.40;;
83117;SDS011;73000;51.784;4.660;2023-10-19T05:19:14;5.07;;;2.38;;
83117;SDS011;73000;51.784;4.660;2023-10-19T05:21:39;7.72;;;2.30;;
83117;SDS011;73000;51.784;4.660;2023-10-19T05:24:04;3.93;;;2.03;;
83117;SDS011;73000;51.784;4.660;2023-10-19T05:26:32;6.32;;;2.03;;
83117;SDS011;73000;51.784;4.660;2023-10-19T05:28:58;5.38;;;2.05;;
83117;SDS011;73000;51.784;4.660;2023-10-19T05:31:23;6.20;;;1.98;;
83117;SDS011;73000;51.784;4.660;2023-10-19T05:33:49;7.00;;;2.13;;
83117;SDS011;73000;51.784;4.660;2023-10-19T05:36:14;6.03;;;1.92;;
83117;SDS011;73000;51.784;4.660;2023-10-19T05:38:40;6.07;;;2.50;;
83117;SDS011;73000;51.784;4.660;2023-10-19T05:41:05;5.60;;;2.20;;
83117;SDS011;73000;51.784;4.660;2023-10-19T05:43:32;5.13;;;2.45;;
83117;SDS011;73000;51.784;4.660;2023-10-19T05:45:59;8.25;;;2.05;;
83117;SDS011;73000;51.784;4.660;2023-10-19T05:48:25;7.78;;;2.30;;
83117;SDS011;73000;51.784;4.660;2023-10-19T05:50:50;5.30;;;2.55;;
83117;SDS011;73000;51.784;4.660;2023-10-19T05:53:16;3.88;;;2.33;;
83117;SDS011;73000;51.784;4.660;2023-10-19T05:55:43;4.75;;;2.45;;
83117;SDS011;73000;51.784;4.660;2023-10-19T05:58:09;5.20;;;2.20;;
83117;SDS011;73000;51.784;4.660;2023-10-19T06:00:34;6.05;;;2.40;;
83117;SDS011;73000;51.784;4.660;2023-10-19T06:03:00;4.77;;;2.30;;
83117;SDS011;73000;51.784;4.660;2023-10-19T06:05:25;6.80;;;2.30;;
83117;SDS011;73000;51.784;4.660;2023-10-19T06:07:50;4.82;;;2.15;;
83117;SDS011;73000;51.784;4.660;2023-10-19T06:10:19;4.82;;;2.22;;
83117;SDS011;73000;51.784;4.660;2023-10-19T06:12:51;4.07;;;2.13;;
83117;SDS011;73000;51.784;4.660;2023-10-19T06:15:17;6.90;;;2.10;;
83117;SDS011;73000;51.784;4.660;2023-10-19T06:17:45;5.30;;;2.22;;
83117;SDS011;73000;51.784;4.660;2023-10-19T06:20:13;5.32;;;2.75;;
83117;SDS011;73000;51.784;4.660;2023-10-19T06:22:54;6.65;;;2.50;;
83117;SDS011;73000;51.784;4.660;2023-10-19T06:25:21;6.00;;;2.35;;
83117;SDS011;73000;51.784;4.660;2023-10-19T06:27:48;8.27;;;2.35;;
83117;SDS011;73000;51.784;4.660;2023-10-19T06:30:15;3.53;;;2.33;;
83117;SDS011;73000;51.784;4.660;2023-10-19T06:32:47;4.57;;;2.60;;
83117;SDS011;73000;51.784;4.660;2023-10-19T06:35:13;5.80;;;1.95;;
83117;SDS011;73000;51.784;4.660;2023-10-19T06:37:38;7.38;;;2.20;;
83117;SDS011;73000;51.784;4.660;2023-10-19T06:40:05;7.13;;;2.22;;
83117;SDS011;73000;51.784;4.660;2023-10-19T06:42:31;5.43;;;2.00;;
83117;SDS011;73000;51.784;4.660;2023-10-19T06:44:56;6.90;;;2.10;;
83117;SDS011;73000;51.784;4.660;2023-10-19T06:47:22;8.07;;;2.20;;
83117;SDS011;73000;51.784;4.660;2023-10-19T06:49:48;9.20;;;2.70;;
83117;SDS011;73000;51.784;4.660;2023-10-19T06:52:13;5.97;;;2.20;;
83117;SDS011;73000;51.784;4.660;2023-10-19T06:54:38;6.72;;;2.20;;
83117;SDS011;73000;51.784;4.660;2023-10-19T06:57:04;7.55;;;1.90;;
83117;SDS011;73000;51.784;4.660;2023-10-19T06:59:30;5.75;;;2.20;;
83117;SDS011;73000;51.784;4.660;2023-10-19T07:01:58;5.10;;;2.22;;
83117;SDS011;73000;51.784;4.660;2023-10-19T07:06:51;3.77;;;1.93;;
83117;SDS011;73000;51.784;4.660;2023-10-19T07:09:16;5.95;;;2.08;;
83117;SDS011;73000;51.784;4.660;2023-10-19T07:11:43;6.35;;;2.33;;
83117;SDS011;73000;51.784;4.660;2023-10-19T07:14:09;11.45;;;2.30;;
83117;SDS011;73000;51.784;4.660;2023-10-19T07:16:35;5.63;;;2.00;;
83117;SDS011;73000;51.784;4.660;2023-10-19T07:19:01;6.53;;;2.42;;
83117;SDS011;73000;51.784;4.660;2023-10-19T07:21:26;5.68;;;2.17;;
83117;SDS011;73000;51.784;4.660;2023-10-19T07:26:21;8.40;;;2.10;;
83117;SDS011;73000;51.784;4.660;2023-10-19T07:28:55;7.25;;;2.20;;
83117;SDS011;73000;51.784;4.660;2023-10-19T07:31:20;6.25;;;2.40;;
83117;SDS011;73000;51.784;4.660;2023-10-19T07:33:46;8.75;;;2.97;;
83117;SDS011;73000;51.784;4.660;2023-10-19T07:36:15;6.80;;;2.20;;
83117;SDS011;73000;51.784;4.660;2023-10-19T07:38:40;6.78;;;2.30;;
83117;SDS011;73000;51.784;4.660;2023-10-19T07:41:07;8.95;;;2.80;;
83117;SDS011;73000;51.784;4.660;2023-10-19T07:43:34;10.60;;;2.65;;
83117;SDS011;73000;51.784;4.660;2023-10-19T07:46:00;11.40;;;3.10;;
83117;SDS011;73000;51.784;4.660;2023-10-19T07:48:26;11.02;;;2.40;;
83117;SDS011;73000;51.784;4.660;2023-10-19T07:50:52;7.47;;;2.92;;
83117;SDS011;73000;51.784;4.660;2023-10-19T07:53:18;6.03;;;2.42;;
83117;SDS011;73000;51.784;4.660;2023-10-19T07:55:44;6.93;;;2.53;;
83117;SDS011;73000;51.784;4.660;2023-10-19T07:58:09;6.60;;;2.15;;
83117;SDS011;73000;51.784;4.660;2023-10-19T08:00:35;9.90;;;2.95;;
83117;SDS011;73000;51.784;4.660;2023-10-19T08:03:01;8.65;;;2.42;;
83117;SDS011;73000;51.784;4.660;2023-10-19T08:05:28;9.40;;;2.65;;
83117;SDS011;73000;51.784;4.660;2023-10-19T08:07:53;5.68;;;3.60;;
83117;SDS011;73000;51.784;4.660;2023-10-19T08:10:19;11.45;;;3.60;;
83117;SDS011;73000;51.784;4.660;2023-10-19T08:12:45;7.47;;;2.60;;
83117;SDS011;73000;51.784;4.660;2023-10-19T08:15:13;6.03;;;2.53;;
83117;SDS011;73000;51.784;4.660;2023-10-19T08:20:09;9.05;;;2.67;;
83117;SDS011;73000;51.784;4.660;2023-10-19T08:23:02;9.10;;;3.03;;
83117;SDS011;73000;51.784;4.660;2023-10-19T08:25:28;8.98;;;2.80;;
83117;SDS011;73000;51.784;4.660;2023-10-19T08:27:53;7.90;;;2.35;;
83117;SDS011;73000;51.784;4.660;2023-10-19T08:30:22;9.07;;;3.03;;
83117;SDS011;73000;51.784;4.660;2023-10-19T08:32:48;11.23;;;3.20;;
83117;SDS011;73000;51.784;4.660;2023-10-19T08:35:14;8.55;;;2.45;;
83117;SDS011;73000;51.784;4.660;2023-10-19T08:37:41;8.55;;;3.25;;
83117;SDS011;73000;51.784;4.660;2023-10-19T08:40:07;11.98;;;3.15;;
83117;SDS011;73000;51.784;4.660;2023-10-19T08:42:40;6.07;;;2.42;;
83117;SDS011;73000;51.784;4.660;2023-10-19T08:45:07;12.23;;;2.70;;
83117;SDS011;73000;51.784;4.660;2023-10-19T08:47:34;8.90;;;2.05;;
83117;SDS011;73000;51.784;4.660;2023-10-19T08:50:02;6.82;;;2.08;;
83117;SDS011;73000;51.784;4.660;2023-10-19T08:52:30;7.35;;;2.38;;
83117;SDS011;73000;51.784;4.660;2023-10-19T08:54:57;7.43;;;2.60;;
83117;SDS011;73000;51.784;4.660;2023-10-19T08:57:23;9.45;;;2.88;;
83117;SDS011;73000;51.784;4.660;2023-10-19T08:59:48;7.95;;;2.08;;
83117;SDS011;73000;51.784;4.660;2023-10-19T09:02:14;8.02;;;2.15;;
83117;SDS011;73000;51.784;4.660;2023-10-19T09:07:08;9.07;;;2.35;;
83117;SDS011;73000;51.784;4.660;2023-10-19T09:09:35;8.73;;;2.35;;
83117;SDS011;73000;51.784;4.660;2023-10-19T09:12:04;8.35;;;2.20;;
83117;SDS011;73000;51.784;4.660;2023-10-19T09:14:32;5.80;;;1.83;;
83117;SDS011;73000;51.784;4.660;2023-10-19T09:16:58;9.65;;;2.10;;
83117;SDS011;73000;51.784;4.660;2023-10-19T09:19:41;7.50;;;1.98;;
83117;SDS011;73000;51.784;4.660;2023-10-19T09:22:09;7.60;;;2.30;;
83117;SDS011;73000;51.784;4.660;2023-10-19T09:24:47;9.95;;;2.30;;
83117;SDS011;73000;51.784;4.660;2023-10-19T09:27:16;7.03;;;2.20;;
83117;SDS011;73000;51.784;4.660;2023-10-19T09:29:42;8.85;;;3.17;;
83117;SDS011;73000;51.784;4.660;2023-10-19T09:32:07;5.82;;;2.20;;
83117;SDS011;73000;51.784;4.660;2023-10-19T09:34:33;5.82;;;2.20;;
83117;SDS011;73000;51.784;4.660;2023-10-19T09:36:59;11.90;;;2.53;;
83117;SDS011;73000;51.784;4.660;2023-10-19T09:39:31;9.63;;;2.63;;
83117;SDS011;73000;51.784;4.660;2023-10-19T09:42:02;5.32;;;2.20;;
83117;SDS011;73000;51.784;4.660;2023-10-19T09:44:39;10.25;;;2.67;;
83117;SDS011;73000;51.784;4.660;2023-10-19T09:47:10;10.70;;;2.72;;
83117;SDS011;73000;51.784;4.660;2023-10-19T09:49:37;10.00;;;2.30;;
83117;SDS011;73000;51.784;4.660;2023-10-19T09:52:03;10.88;;;2.30;;
83117;SDS011;73000;51.784;4.660;2023-10-19T09:54:50;11.30;;;2.20;;
83117;SDS011;73000;51.784;4.660;2023-10-19T09:57:32;8.00;;;2.05;;
83117;SDS011;73000;51.784;4.660;2023-10-19T10:00:03;9.18;;;2.20;;
83117;SDS011;73000;51.784;4.660;2023-10-19T10:02:36;8.38;;;2.15;;
83117;SDS011;73000;51.784;4.660;2023-10-19T10:05:03;11.88;;;2.60;;
83117;SDS011;73000;51.784;4.660;2023-10-19T10:07:29;9.23;;;2.40;;
83117;SDS011;73000;51.784;4.660;2023-10-19T10:09:55;6.70;;;2.20;;
83117;SDS011;73000;51.784;4.660;2023-10-19T10:12:21;11.35;;;2.38;;
83117;SDS011;73000;51.784;4.660;2023-10-19T10:15:02;8.70;;;2.47;;
83117;SDS011;73000;51.784;4.660;2023-10-19T10:17:35;6.07;;;1.75;;
83117;SDS011;73000;51.784;4.660;2023-10-19T10:22:39;9.95;;;2.25;;
83117;SDS011;73000;51.784;4.660;2023-10-19T10:25:09;7.47;;;1.70;;
83117;SDS011;73000;51.784;4.660;2023-10-19T10:27:50;9.60;;;2.33;;
83117;SDS011;73000;51.784;4.660;2023-10-19T10:30:16;6.05;;;2.10;;
83117;SDS011;73000;51.784;4.660;2023-10-19T10:32:45;5.53;;;2.05;;
83117;SDS011;73000;51.784;4.660;2023-10-19T10:38:08;4.45;;;2.05;;
83117;SDS011;73000;51.784;4.660;2023-10-19T10:45:41;8.88;;;2.00;;
83117;SDS011;73000;51.784;4.660;2023-10-19T10:48:13;8.10;;;2.30;;
83117;SDS011;73000;51.784;4.660;2023-10-19T10:50:39;7.55;;;2.10;;
83117;SDS011;73000;51.784;4.660;2023-10-19T10:53:06;7.93;;;2.67;;
83117;SDS011;73000;51.784;4.660;2023-10-19T10:55:31;7.63;;;2.45;;
83117;SDS011;73000;51.784;4.660;2023-10-19T10:57:57;7.47;;;3.50;;
83117;SDS011;73000;51.784;4.660;2023-10-19T11:00:23;10.23;;;2.45;;
83117;SDS011;73000;51.784;4.660;2023-10-19T11:03:06;8.52;;;2.58;;
83117;SDS011;73000;51.784;4.660;2023-10-19T11:05:33;9.13;;;2.38;;
83117;SDS011;73000;51.784;4.660;2023-10-19T11:10:39;8.57;;;2.25;;
83117;SDS011;73000;51.784;4.660;2023-10-19T11:13:07;8.65;;;2.30;;
83117;SDS011;73000;51.784;4.660;2023-10-19T11:15:34;11.52;;;2.45;;
83117;SDS011;73000;51.784;4.660;2023-10-19T11:18:02;11.32;;;2.42;;
83117;SDS011;73000;51.784;4.660;2023-10-19T11:20:28;8.10;;;2.20;;
83117;SDS011;73000;51.784;4.660;2023-10-19T11:22:53;9.80;;;2.72;;
83117;SDS011;73000;51.784;4.660;2023-10-19T11:25:28;10.30;;;2.60;;
83117;SDS011;73000;51.784;4.660;2023-10-19T11:30:28;11.10;;;2.80;;
83117;SDS011;73000;51.784;4.660;2023-10-19T11:32:56;9.85;;;2.30;;
83117;SDS011;73000;51.784;4.660;2023-10-19T11:35:25;11.70;;;2.25;;
83117;SDS011;73000;51.784;4.660;2023-10-19T11:37:52;8.13;;;2.50;;
83117;SDS011;73000;51.784;4.660;2023-10-19T11:42:46;11.90;;;2.78;;
83117;SDS011;73000;51.784;4.660;2023-10-19T11:45:12;11.98;;;3.15;;
83117;SDS011;73000;51.784;4.660;2023-10-19T11:47:38;6.80;;;2.60;;
83117;SDS011;73000;51.784;4.660;2023-10-19T11:50:04;6.65;;;3.28;;
83117;SDS011;73000;51.784;4.660;2023-10-19T11:52:30;10.77;;;2.75;;
83117;SDS011;73000;51.784;4.660;2023-10-19T11:54:55;11.15;;;2.63;;
83117;SDS011;73000;51.784;4.660;2023-10-19T11:57:21;6.90;;;2.58;;
83117;SDS011;73000;51.784;4.660;2023-10-19T11:59:46;10.85;;;2.38;;
83117;SDS011;73000;51.784;4.660;2023-10-19T12:02:17;5.38;;;2.70;;
83117;SDS011;73000;51.784;4.660;2023-10-19T12:04:45;9.65;;;2.28;;
83117;SDS011;73000;51.784;4.660;2023-10-19T12:07:11;9.13;;;2.35;;
83117;SDS011;73000;51.784;4.660;2023-10-19T12:09:36;11.10;;;2.55;;
83117;SDS011;73000;51.784;4.660;2023-10-19T12:12:02;10.25;;;2.70;;
83117;SDS011;73000;51.784;4.660;2023-10-19T12:14:31;5.45;;;2.80;;
83117;SDS011;73000;51.784;4.660;2023-10-19T12:16:59;9.20;;;2.75;;
83117;SDS011;73000;51.784;4.660;2023-10-19T12:19:25;10.13;;;2.67;;
83117;SDS011;73000;51.784;4.660;2023-10-19T12:21:53;9.02;;;2.40;;
83117;SDS011;73000;51.784;4.660;2023-10-19T12:24:18;12.57;;;3.42;;
83117;SDS011;73000;51.784;4.660;2023-10-19T12:26:45;9.50;;;3.22;;
83117;SDS011;73000;51.784;4.660;2023-10-19T12:29:11;7.75;;;3.03;;
83117;SDS011;73000;51.784;4.660;2023-10-19T12:31:39;8.70;;;2.95;;
83117;SDS011;73000;51.784;4.660;2023-10-19T12:34:05;11.80;;;3.60;;
83117;SDS011;73000;51.784;4.660;2023-10-19T12:36:31;15.35;;;3.05;;
83117;SDS011;73000;51.784;4.660;2023-10-19T12:38:57;6.97;;;2.53;;
83117;SDS011;73000;51.784;4.660;2023-10-19T12:41:23;9.95;;;2.80;;
83117;SDS011;73000;51.784;4.660;2023-10-19T12:43:55;12.00;;;2.97;;
83117;SDS011;73000;51.784;4.660;2023-10-19T12:46:25;9.02;;;2.80;;
83117;SDS011;73000;51.784;4.660;2023-10-19T12:48:52;9.00;;;2.78;;
83117;SDS011;73000;51.784;4.660;2023-10-19T12:51:19;5.60;;;2.22;;
83117;SDS011;73000;51.784;4.660;2023-10-19T12:53:51;10.13;;;2.80;;
83117;SDS011;73000;51.784;4.660;2023-10-19T12:56:17;11.70;;;2.83;;
83117;SDS011;73000;51.784;4.660;2023-10-19T12:58:43;11.88;;;3.00;;
83117;SDS011;73000;51.784;4.660;2023-10-19T13:01:09;6.03;;;2.53;;
83117;SDS011;73000;51.784;4.660;2023-10-19T13:03:41;11.30;;;2.45;;
83117;SDS011;73000;51.784;4.660;2023-10-19T13:06:10;6.22;;;2.42;;
83117;SDS011;73000;51.784;4.660;2023-10-19T13:08:37;13.27;;;3.30;;
83117;SDS011;73000;51.784;4.660;2023-10-19T13:11:03;7.80;;;2.90;;
83117;SDS011;73000;51.784;4.660;2023-10-19T13:13:28;9.50;;;2.50;;
83117;SDS011;73000;51.784;4.660;2023-10-19T13:15:53;6.70;;;2.53;;
83117;SDS011;73000;51.784;4.660;2023-10-19T13:18:19;10.25;;;2.67;;
83117;SDS011;73000;51.784;4.660;2023-10-19T13:20:46;7.97;;;2.00;;
83117;SDS011;73000;51.784;4.660;2023-10-19T13:23:13;13.07;;;2.53;;
83117;SDS011;73000;51.784;4.660;2023-10-19T13:25:46;9.68;;;2.55;;
83117;SDS011;73000;51.784;4.660;2023-10-19T13:28:15;7.15;;;2.60;;
83117;SDS011;73000;51.784;4.660;2023-10-19T13:30:43;8.48;;;2.78;;
83117;SDS011;73000;51.784;4.660;2023-10-19T13:33:12;9.10;;;2.50;;
83117;SDS011;73000;51.784;4.660;2023-10-19T13:35:39;10.48;;;2.80;;
83117;SDS011;73000;51.784;4.660;2023-10-19T13:38:08;8.27;;;2.65;;
83117;SDS011;73000;51.784;4.660;2023-10-19T13:40:35;7.75;;;3.38;;
83117;SDS011;73000;51.784;4.660;2023-10-19T13:43:01;7.80;;;2.70;;
83117;SDS011;73000;51.784;4.660;2023-10-19T13:45:31;11.85;;;3.25;;
83117;SDS011;73000;51.784;4.660;2023-10-19T13:47:58;8.10;;;3.10;;
83117;SDS011;73000;51.784;4.660;2023-10-19T13:50:25;7.90;;;3.13;;
83117;SDS011;73000;51.784;4.660;2023-10-19T13:52:51;6.22;;;2.55;;
83117;SDS011;73000;51.784;4.660;2023-10-19T13:55:18;8.65;;;3.03;;
83117;SDS011;73000;51.784;4.660;2023-10-19T13:57:45;10.95;;;3.03;;
83117;SDS011;73000;51.784;4.660;2023-10-19T14:00:12;7.60;;;2.90;;
83117;SDS011;73000;51.784;4.660;2023-10-19T14:02:44;9.45;;;3.58;;
83117;SDS011;73000;51.784;4.660;2023-10-19T14:05:11;7.50;;;2.92;;
83117;SDS011;73000;51.784;4.660;2023-10-19T14:07:36;10.85;;;4.00;;
83117;SDS011;73000;51.784;4.660;2023-10-19T14:10:05;12.00;;;3.40;;
83117;SDS011;73000;51.784;4.660;2023-10-19T14:12:31;9.88;;;2.92;;
83117;SDS011;73000;51.784;4.660;2023-10-19T14:14:57;11.85;;;3.55;;
83117;SDS011;73000;51.784;4.660;2023-10-19T14:17:22;8.27;;;2.63;;
83117;SDS011;73000;51.784;4.660;2023-10-19T14:19:48;4.60;;;2.80;;
83117;SDS011;73000;51.784;4.660;2023-10-19T14:22:13;10.73;;;3.13;;
83117;SDS011;73000;51.784;4.660;2023-10-19T14:24:41;9.65;;;3.05;;
83117;SDS011;73000;51.784;4.660;2023-10-19T14:27:06;8.57;;;2.85;;
83117;SDS011;73000;51.784;4.660;2023-10-19T14:29:34;8.05;;;2.80;;
83117;SDS011;73000;51.784;4.660;2023-10-19T14:31:59;10.75;;;3.08;;
83117;SDS011;73000;51.784;4.660;2023-10-19T14:34:24;11.60;;;3.20;;
83117;SDS011;73000;51.784;4.660;2023-10-19T14:36:51;4.72;;;2.38;;
83117;SDS011;73000;51.784;4.660;2023-10-19T14:39:18;8.43;;;2.60;;
83117;SDS011;73000;51.784;4.660;2023-10-19T14:41:45;8.20;;;2.53;;
83117;SDS011;73000;51.784;4.660;2023-10-19T14:44:12;6.15;;;2.33;;
83117;SDS011;73000;51.784;4.660;2023-10-19T14:46:37;7.18;;;2.80;;
83117;SDS011;73000;51.784;4.660;2023-10-19T14:49:02;9.43;;;3.05;;
83117;SDS011;73000;51.784;4.660;2023-10-19T14:51:28;8.00;;;2.85;;
83117;SDS011;73000;51.784;4.660;2023-10-19T14:53:53;6.50;;;2.38;;
83117;SDS011;73000;51.784;4.660;2023-10-19T14:56:18;7.50;;;2.65;;
83117;SDS011;73000;51.784;4.660;2023-10-19T14:58:44;7.80;;;2.45;;
83117;SDS011;73000;51.784;4.660;2023-10-19T15:01:09;7.82;;;2.72;;
83117;SDS011;73000;51.784;4.660;2023-10-19T15:03:41;4.85;;;2.80;;
83117;SDS011;73000;51.784;4.660;2023-10-19T15:06:06;6.95;;;2.88;;
83117;SDS011;73000;51.784;4.660;2023-10-19T15:08:32;9.52;;;3.63;;
83117;SDS011;73000;51.784;4.660;2023-10-19T15:10:57;6.47;;;3.47;;
83117;SDS011;73000;51.784;4.660;2023-10-19T15:13:23;6.88;;;2.92;;
83117;SDS011;73000;51.784;4.660;2023-10-19T15:15:49;14.25;;;3.55;;
83117;SDS011;73000;51.784;4.660;2023-10-19T15:18:14;8.00;;;2.85;;